• Join FlightAware (Why Join?)
  • Login
  • US Flag 
05:52AM EST


 

Airport Tracker/Info


-or-


 

Live Flight TrackerFlight Track Log ✈ SWA2854 ✈ 24-Aug-2013 ✈ KDEN - KATL

Flight Track Log - Related Links

Times and Time Zones

All times are in EDT time to prevent confusion due to time zone crossing. See the SWA2854 flight status page for this flight to view local times or setup timezone preferences in your user account.

Time Position Orientation Groundspeed Altitude Reporting Facility
EDT Latitude Longitude Course Direction KTS MPH feet Rate Location/Type
07:47PM 39.9500 -104.6333 108° East 217 250 7,900  Level Denver TRACON
07:48PM 39.9833 -104.5833 49° Northeast 277 319 10,000 2,040 Climbing Denver TRACON
07:49PM 39.9500 -104.4833 113° Southeast 327 376 12,000 2,400 Climbing Denver TRACON
07:50PM 39.8833 -104.3667 127° Southeast 369 425 15,100 2,820 Climbing Denver TRACON
07:52PM 39.8158 -104.2183 121° Southeast 389 448 18,600 2,760 Climbing Denver Center
07:53PM 39.5969 -103.8376 108° East  Level FlightAware Approximate
07:53PM 39.7506 -104.0942 124° Southeast 415 478 21,400  Level Denver Center
07:54PM 39.6808 -103.9658 125° Southeast 432 497 24,000 2,100 Climbing Denver Center
07:55PM 39.6294 -103.8706 125° Southeast 436 502 25,800 2,100 Climbing Denver Center
07:56PM 39.5658 -103.6981 116° Southeast 441 507 28,400 2,460 Climbing Denver Center
07:57PM 39.5169 -103.5083 108° East 461 531 30,900 2,040 Climbing Denver Center
07:58PM 39.4661 -103.3158 109° East 470 541 33,100 1,920 Climbing Denver Center
07:59PM 39.4233 -103.1572 109° East 471 542 35,300 2,100 Climbing Denver Center
08:00PM 39.3817 -103.0003 109° East 465 535 37,500 1,800 Climbing Denver Center
08:01PM 39.3408 -102.8489 109° East 453 521 39,100 1,260 Climbing Denver Center
08:03PM 39.2703 -102.5861 109° East 451 519 41,000 660 Climbing Kansas City Center
08:04PM 39.2228 -102.4136 110° East 454 522 41,000  Level Kansas City Center
08:05PM 39.1819 -102.2664 110° East 455 524 41,000  Level Kansas City Center
08:06PM 39.1419 -102.1175 109° East 459 528 41,000  Level Kansas City Center
08:07PM 39.0925 -101.9453 110° East 459 528 41,000  Level Kansas City Center
08:08PM 39.0503 -101.7986 110° East 458 527 41,000  Level Kansas City Center
08:09PM 39.0083 -101.6531 110° East 455 524 41,000  Level Kansas City Center
08:10PM 38.9608 -101.4814 110° East 455 524 41,000  Level Kansas City Center
08:11PM 38.9144 -101.3403 113° Southeast 451 519 41,000  Level Kansas City Center
08:12PM 38.8675 -101.1719 110° East 448 516 41,000  Level Kansas City Center
08:13PM 38.8253 -101.0275 111° Southeast 450 518 41,000  Level Kansas City Center
08:14PM 38.7844 -100.8808 110° East 454 522 41,000  Level Kansas City Center
08:15PM 38.7353 -100.7122 110° East 452 520 41,000  Level Kansas City Center
08:16PM 38.6933 -100.5658 110° East 455 524 41,000  Level Kansas City Center
08:17PM 38.6525 -100.4250 110° East 445 512 41,000  Level Kansas City Center
08:18PM 38.6044 -100.2600 110° East 442 509 41,000  Level Kansas City Center
08:19PM 38.5631 -100.1189 111° Southeast 442 509 41,000  Level Kansas City Center
08:20PM 38.5150 -99.9544 110° East 441 507 41,000  Level Kansas City Center
08:21PM 38.4736 -99.8144 111° Southeast 440 506 41,000  Level Kansas City Center
08:22PM 38.4319 -99.6731 111° Southeast 442 509 41,000  Level Kansas City Center
08:23PM 38.3850 -99.5192 111° Southeast 443 510 41,000  Level Kansas City Center
08:24PM 38.3411 -99.3742 111° Southeast 441 507 41,000  Level Kansas City Center
08:25PM 38.2981 -99.2303 111° Southeast 437 503 41,000  Level Kansas City Center
08:26PM 38.2553 -99.0875 111° Southeast 433 498 41,000  Level Kansas City Center
08:27PM 38.2114 -98.9456 111° Southeast 433 498 41,000  Level Kansas City Center
08:28PM 38.1700 -98.8011 110° East 434 499 41,000  Level Kansas City Center
08:29PM 38.1253 -98.6594 112° Southeast 432 497 41,000  Level Kansas City Center
08:30PM 38.0717 -98.4883 112° Southeast 435 501 41,000  Level Kansas City Center
08:31PM 38.0281 -98.3436 111° Southeast 438 504 41,000  Level Kansas City Center
08:32PM 37.9836 -98.2017 112° Southeast 437 503 41,000  Level Kansas City Center
08:33PM 37.9425 -98.0747 112° Southeast 433 498 41,000  Level Kansas City Center
08:34PM 37.8894 -97.9042 111° Southeast 431 496 41,000  Level Kansas City Center
08:35PM 37.8444 -97.7592 111° Southeast 434 499 41,000  Level Kansas City Center
08:36PM 37.7969 -97.6142 112° Southeast 439 505 41,000  Level Kansas City Center
08:37PM 37.7508 -97.4706 112° Southeast 440 506 41,000  Level Kansas City Center
08:38PM 37.7036 -97.3250 112° Southeast 440 506 41,000  Level Kansas City Center
08:39PM 37.6581 -97.1833 112° Southeast 436 502 41,000  Level Kansas City Center
08:40PM 37.6125 -97.0411 112° Southeast 438 504 41,000  Level Kansas City Center
08:41PM 37.5650 -96.8994 113° Southeast 439 505 41,000  Level Kansas City Center
08:42PM 37.5183 -96.7572 112° Southeast 440 506 41,000  Level Kansas City Center
08:44PM 37.4711 -96.6139 113° Southeast 442 509 41,000  Level Kansas City Center
08:45PM 37.4269 -96.4700 111° Southeast 442 509 41,000  Level Kansas City Center
08:46PM 37.3772 -96.3158 112° Southeast 448 516 41,000  Level Kansas City Center
08:47PM 37.3275 -96.1733 114° Southeast 446 513 41,000  Level Kansas City Center
08:48PM 37.2794 -96.0275 112° Southeast 449 517 41,000  Level Kansas City Center
08:49PM 37.2292 -95.8850 114° Southeast 447 514 41,000  Level Kansas City Center
08:50PM 37.1708 -95.7117 113° Southeast 447 514 41,000  Level Kansas City Center
08:51PM 37.1222 -95.5697 113° Southeast 444 511 41,000  Level Kansas City Center
08:52PM 37.0731 -95.4272 113° Southeast 443 510 41,000  Level Kansas City Center
08:53PM 37.0231 -95.2858 114° Southeast 442 509 41,000  Level Kansas City Center
08:54PM 36.9725 -95.1428 114° Southeast 444 511 41,000  Level Kansas City Center
08:55PM 36.9222 -95.0000 114° Southeast 445 512 41,000  Level Kansas City Center
08:56PM 36.8719 -94.8564 114° Southeast 447 514 41,000  Level Kansas City Center
08:57PM 36.8206 -94.7144 114° Southeast 446 513 41,000  Level Kansas City Center
08:58PM 36.7700 -94.5719 114° Southeast 447 514 41,000  Level Kansas City Center
08:59PM 36.7189 -94.4297 114° Southeast 447 514 41,000  Level Kansas City Center
09:00PM 36.6686 -94.2869 114° Southeast 447 514 41,000  Level Kansas City Center
09:01PM 36.6161 -94.1447 115° Southeast 449 517 41,000  Level Kansas City Center
09:02PM 36.5653 -94.0022 114° Southeast 449 517 41,000  Level Kansas City Center
09:03PM 36.5131 -93.8606 115° Southeast 450 518 41,000  Level Kansas City Center
09:04PM 36.4603 -93.7156 114° Southeast 450 518 41,000  Level Kansas City Center
09:05PM 36.4081 -93.5747 115° Southeast 449 517 41,000  Level Kansas City Center
09:06PM 36.3544 -93.4258 114° Southeast 444 511 41,000  Level Memphis Center
09:07PM 36.3017 -93.2822 114° Southeast 449 517 41,000  Level Memphis Center
09:08PM 36.2486 -93.1389 115° Southeast 444 511 41,000  Level Memphis Center
09:09PM 36.1972 -93.0061 116° Southeast 443 510 41,000  Level Memphis Center
09:10PM 36.1461 -92.8603 113° Southeast 442 509 41,000  Level Memphis Center
09:11PM 36.0925 -92.7200 115° Southeast 447 514 41,000  Level Memphis Center
09:12PM 36.0389 -92.5775 115° Southeast 447 514 41,000  Level Memphis Center
09:13PM 35.9869 -92.4400 115° Southeast 447 514 41,000  Level Memphis Center
09:14PM 35.9331 -92.2978 115° Southeast 447 514 41,000  Level Memphis Center
09:15PM 35.8789 -92.1556 115° Southeast 447 514 41,000  Level Memphis Center
09:16PM 35.8244 -92.0161 116° Southeast 447 514 41,000  Level Memphis Center
09:17PM 35.7700 -91.8742 115° Southeast 447 514 41,000  Level Memphis Center
09:18PM 35.7153 -91.7325 115° Southeast 447 514 41,000  Level Memphis Center
09:19PM 35.6606 -91.5911 115° Southeast 447 514 41,000  Level Memphis Center
09:20PM 35.6056 -91.4525 116° Southeast 447 514 41,000  Level Memphis Center
09:21PM 35.5503 -91.3139 116° Southeast 447 514 41,000  Level Memphis Center
09:22PM 35.4950 -91.1731 116° Southeast 453 521 41,000  Level Memphis Center
09:23PM 35.4500 -91.0247 110° East 453 521 41,000  Level Memphis Center
09:24PM 35.4194 -90.8742 104° East 453 521 41,000  Level Memphis Center
09:25PM 35.3844 -90.7111 105° East 448 516 41,000  Level Memphis Center
09:26PM 35.3514 -90.5633 105° East 453 521 41,000  Level Memphis Center
09:27PM 35.3181 -90.4156 105° East 453 521 41,000  Level Memphis Center
09:28PM 35.2889 -90.2681 104° East 453 521 41,000  Level Memphis Center
09:29PM 35.2575 -90.1206 105° East 448 516 41,000  Level Memphis Center
09:30PM 35.2236 -89.9758 106° East 448 516 41,000  Level Memphis Center
09:31PM 35.1919 -89.8286 105° East 448 516 41,000  Level Memphis Center
09:32PM 35.1619 -89.6942 105° East 448 516 41,000  Level Memphis Center
09:33PM 35.1278 -89.5472 106° East 448 516 41,000  Level Memphis Center
09:34PM 35.0933 -89.4003 106° East 448 516 41,000  Level Memphis Center
09:35PM 35.0586 -89.2561 106° East 448 516 41,000 -540 Level Memphis Center
09:36PM 35.0197 -89.0969 107° East 448 516 40,000 -960 Descending Memphis Center
09:37PM 34.9847 -88.9503 106° East 443 510 39,100 -540 Descending Memphis Center
09:38PM 34.9494 -88.8014 106° East 443 510 39,000 -60 Descending Memphis Center
09:39PM 34.9142 -88.6553 106° East 450 518 39,000  Level Memphis Center
09:40PM 34.8786 -88.5067 106° East 450 518 39,000  Level Memphis Center
09:41PM 34.8497 -88.3858 106° East 445 512 39,000  Level Memphis Center
09:42PM 34.8158 -88.2347 105° East 445 512 39,000  Level Memphis Center
09:43PM 34.7733 -88.0639 107° East 469 540 39,000  Level Memphis Center
09:44PM 34.7375 -87.9336 108° East 462 532 39,000 -60 Level Memphis Center
09:45PM 34.7053 -87.7828 105° East 457 526 38,900 -1,320 Descending Memphis Center
09:46PM 34.6686 -87.6375 107° East 452 520 36,400 -2,040 Descending Memphis Center
09:48PM 34.6036 -87.3422 105° East 438 504 33,000 -1,200 Descending Atlanta Center
09:49PM 34.5761 -87.1997 103° East 438 504 33,000  Level Atlanta Center
09:50PM 34.5483 -87.0575 103° East 438 504 33,000  Level Atlanta Center
09:51PM 34.5206 -86.9128 103° East 438 504 33,000 -120 Level Atlanta Center
09:52PM 34.4922 -86.7708 104° East 438 504 32,800 -600 Descending Atlanta Center
09:53PM 34.4642 -86.6264 103° East 438 504 31,800 -1,020 Descending Atlanta Center
09:54PM 34.4378 -86.4844 103° East 438 504 30,800 -900 Descending Atlanta Center
09:55PM 34.4072 -86.3350 104° East 438 504 30,100 -900 Descending Atlanta Center
09:56PM 34.3767 -86.1806 103° East 455 524 29,100 -1,020 Descending Atlanta Center
09:57PM 34.3458 -86.0264 104° East 461 531 28,100 -1,080 Descending Atlanta Center
09:58PM 34.3169 -85.8822 104° East 461 531 27,000 -1,020 Descending Atlanta Center
09:59PM 34.2919 -85.7333 101° East 454 522 26,100 -1,440 Descending Atlanta Center
10:00PM 34.2625 -85.5897 104° East 454 522 24,200 -2,400 Descending Atlanta Center
10:01PM 34.2350 -85.4533 104° East 435 501 21,300 -2,880 Descending Atlanta Center
10:02PM 34.2050 -85.3172 105° East 421 484 18,500 -2,760 Descending Atlanta Center
10:03PM 34.1792 -85.1914 104° East 391 450 15,800 -2,460 Descending Atlanta Center
10:04PM 34.1322 -85.0828 118° Southeast 356 410 13,600 -1,440 Descending Atlanta Center
10:05PM 34.0703 -85.0017 133° Southeast 343 395 13,000 -1,080 Descending Atlanta Center
10:06PM 34.0186 -84.9361 134° Southeast 313 360 11,500 -1,740 Descending Atlanta Center
10:07PM 33.9606 -84.8628 134° Southeast 298 343 9,600 -1,260 Descending Atlanta Center
10:08PM 33.8900 -84.8144 150° Southeast 298 343 9,000 -1,500 Descending Atlanta Center
10:09PM 33.8167 -84.7500 144° Southeast 284 327 6,700 -1,740 Descending Atlanta TRACON
10:10PM 33.7500 -84.7000 148° Southeast 257 296 5,400 -960 Descending Atlanta TRACON
10:11PM 33.7000 -84.6500 140° Southeast 228 262 4,800 -840 Descending Atlanta TRACON
10:12PM 33.6667 -84.6000 129° Southeast 214 246 3,900 -1,080 Descending Atlanta TRACON
10:13PM 33.6500 -84.5500 112° Southeast 180 207 3,000 -900 Descending Atlanta TRACON
10:14PM 33.6500 -84.5167 90° East 120 138 2,200 -720 Descending Atlanta TRACON
10:15PM 33.6500 -84.4667 90° East 117 135 1,600 -600 Descending Atlanta TRACON
10:17PM 33.6367 -84.4279 North  Level Estimated
10:24PM 33.6367 -84.4279 North  Level Estimated